Time;durP1;ratioP1;P1;durP2;ratioP2;P2;SDS_P1;SDS_P2;PMS_P1;PMS_P2;Temp;Humidity;BMP_temperature;BMP_pressure;BME280_temperature;BME280_humidity;BME280_pressure;Samples;Min_cycle;Max_cycle;Signal;HPM_P1;HPM_P2
2021/05/18 00:00:00;;;;;;;;;;;;;;;19.86;49.50;100190.59;2104646;28;4042;-36
2021/05/18 00:01:01;;;;;;;;;;;;;;;19.86;49.65;100184.91;2104328;28;3904;-35
2021/05/18 00:02:02;;;;;;;;;;;;;;;19.86;49.67;100185.72;2104645;28;4014;-33
2021/05/18 00:03:03;;;;;;;;;;;;;;;19.87;49.71;100183.72;2104119;28;3818;-30
2021/05/18 00:04:04;;;;;;;;;;;;;;;19.87;49.72;100181.69;2105415;28;3869;-35
2021/05/18 00:05:06;;;;;;;;;;;;;;;19.87;49.68;100187.38;2104021;28;3904;-37
2021/05/18 00:06:07;;;;;;;;;;;;;;;19.88;49.78;100182.56;2103279;28;3999;-30
2021/05/18 00:07:13;;;;;;;;;;;;;;;19.89;49.76;100184.19;2104506;28;4052;-30
2021/05/18 00:08:15;;;;;;;;;;;;;;;19.89;49.86;100182.16;2105357;28;3976;-32
2021/05/18 00:11:57;;;;;;;;;;;;;;;19.90;50.06;100186.66;2104362;28;4329;-32
2021/05/18 00:12:58;;;;;;;;;;;;;;;19.90;49.97;100183.81;2105580;28;6193;-37
2021/05/18 00:14:00;;;;;;;;;;;;;;;19.91;50.04;100193.19;2105020;28;4003;-34
2021/05/18 00:15:01;;;;;;;;;;;;;;;19.91;49.96;100190.34;2104266;28;3920;-31
2021/05/18 00:16:02;;;;;;;;;;;;;;;19.91;50.18;100188.31;2103354;28;4030;-34
2021/05/18 00:17:04;;;;;;;;;;;;;;;19.92;50.17;100187.13;2105437;28;4127;-33
2021/05/18 00:18:05;;;;;;;;;;;;;;;19.93;50.15;100190.78;2105049;28;4017;-38
2021/05/18 00:19:06;;;;;;;;;;;;;;;19.93;50.27;100193.63;2104848;28;3861;-34
2021/05/18 00:20:07;;;;;;;;;;;;;;;19.93;50.33;100191.63;2104579;28;4616;-38
2021/05/18 00:21:09;;;;;;;;;;;;;;;19.93;50.29;100197.31;2104996;28;4012;-31
2021/05/18 00:22:10;;;;;;;;;;;;;;;19.94;50.34;100192.44;2104802;28;3997;-33
2021/05/18 00:23:11;;;;;;;;;;;;;;;19.94;50.44;100190.44;2104238;28;3853;-32
2021/05/18 00:24:13;;;;;;;;;;;;;;;19.94;50.39;100187.59;2104726;28;4016;-35
2021/05/18 00:25:14;;;;;;;;;;;;;;;19.96;50.42;100199.41;2104021;28;3975;-31
2021/05/18 00:26:15;;;;;;;;;;;;;;;19.95;50.57;100194.09;2103637;28;3830;-33
2021/05/18 00:27:19;;;;;;;;;;;;;;;19.96;50.41;100188.06;2104731;28;3902;-33
2021/05/18 00:28:21;;;;;;;;;;;;;;;19.97;50.45;100192.53;2104343;28;4695;-31
2021/05/18 00:29:22;;;;;;;;;;;;;;;19.97;50.55;100192.53;2103964;28;4105;-33
2021/05/18 00:30:23;;;;;;;;;;;;;;;19.98;50.67;100194.19;2105252;28;3879;-31
2021/05/18 00:31:25;;;;;;;;;;;;;;;19.98;50.79;100194.19;2104314;28;4069;-36
2021/05/18 00:32:26;;;;;;;;;;;;;;;19.99;50.80;100192.19;2105112;28;4045;-30
2021/05/18 00:33:29;;;;;;;;;;;;;;;19.99;50.72;100195.84;2104196;28;4043;-34
2021/05/18 00:34:30;;;;;;;;;;;;;;;19.99;50.87;100190.19;2104572;28;4187;-34
2021/05/18 00:35:32;;;;;;;;;;;;;;;19.99;50.80;100198.69;2103894;28;4039;-33
2021/05/18 00:36:33;;;;;;;;;;;;;;;20.00;50.83;100191.81;2104234;28;4057;-32
2021/05/18 00:37:34;;;;;;;;;;;;;;;20.01;50.91;100189.78;2104175;28;4063;-42
2021/05/18 00:38:35;;;;;;;;;;;;;;;20.01;50.99;100192.63;2105033;28;4051;-35
2021/05/18 00:39:37;;;;;;;;;;;;;;;20.01;50.81;100193.50;2104674;28;4031;-30
2021/05/18 00:40:38;;;;;;;;;;;;;;;20.02;51.07;100194.31;2104788;28;3876;-32
2021/05/18 00:41:39;;;;;;;;;;;;;;;20.03;51.04;100191.09;2105161;28;4117;-34
2021/05/18 00:42:40;;;;;;;;;;;;;;;20.03;51.07;100204.47;2104437;28;4159;-31
2021/05/18 00:43:41;;;;;;;;;;;;;;;20.04;50.99;100203.25;2104215;28;4062;-33
2021/05/18 00:44:43;;;;;;;;;;;;;;;20.03;51.11;100207.31;2104981;28;4050;-31
2021/05/18 00:45:46;;;;;;;;;;;;;;;20.03;51.09;100205.28;2103811;28;4070;-34
2021/05/18 00:46:47;;;;;;;;;;;;;;;20.05;51.15;100198.44;2106729;28;4095;-33
2021/05/18 00:47:48;;;;;;;;;;;;;;;20.05;51.07;100206.97;2105983;28;3860;-30
2021/05/18 00:48:56;;;;;;;;;;;;;;;20.05;51.20;100204.94;2105104;28;3846;-35
2021/05/18 00:49:58;;;;;;;;;;;;;;;20.05;51.26;100199.25;2106881;28;3833;-36
2021/05/18 00:50:59;;;;;;;;;;;;;;;20.06;51.50;100202.91;2106372;28;4007;-35
2021/05/18 00:52:01;;;;;;;;;;;;;;;20.06;51.32;100198.06;2106512;28;3849;-31
2021/05/18 00:53:02;;;;;;;;;;;;;;;20.07;51.31;100204.56;2106766;28;4074;-35
2021/05/18 00:54:06;;;;;;;;;;;;;;;20.07;51.44;100204.56;2105524;28;4063;-34
2021/05/18 00:55:17;;;;;;;;;;;;;;;20.07;51.68;100202.56;2106005;28;3984;-33
2021/05/18 00:56:31;;;;;;;;;;;;;;;20.07;51.53;100204.56;2105957;28;4123;-41
2021/05/18 00:58:52;;;;;;;;;;;;;;;20.07;51.76;100208.25;2098157;28;3829;-34
2021/05/18 00:59:54;;;;;;;;;;;;;;;20.08;51.58;100203.38;2106483;28;3857;-33
2021/05/18 01:00:55;;;;;;;;;;;;;;;20.09;51.81;100202.19;2105881;28;4007;-32
2021/05/18 01:01:56;;;;;;;;;;;;;;;20.09;51.69;100207.88;2106344;28;4001;-33
2021/05/18 01:02:58;;;;;;;;;;;;;;;20.09;51.67;100207.88;2105593;28;4207;-32
2021/05/18 01:04:02;;;;;;;;;;;;;;;20.09;51.90;100207.88;2103670;28;3902;-31
2021/05/18 01:06:18;;;;;;;;;;;;;;;20.10;51.88;100206.69;2100343;28;3854;-43
2021/05/18 01:07:29;;;;;;;;;;;;;;;20.10;52.00;100207.53;2105562;28;3943;-31
2021/05/18 01:08:30;;;;;;;;;;;;;;;20.12;52.17;100209.97;2105443;28;4025;-36
2021/05/18 01:09:31;;;;;;;;;;;;;;;20.11;52.09;100209.16;2106280;28;4034;-30
2021/05/18 01:10:32;;;;;;;;;;;;;;;20.12;52.25;100207.13;2106328;28;4066;-33
2021/05/18 01:11:33;;;;;;;;;;;;;;;20.12;52.18;100204.31;2105836;28;3998;-31
2021/05/18 01:12:35;;;;;;;;;;;;;;;20.12;52.22;100204.31;2106590;28;3877;-30
2021/05/18 01:13:37;;;;;;;;;;;;;;;20.13;52.37;100211.66;2106079;28;3945;-35
2021/05/18 01:14:38;;;;;;;;;;;;;;;20.12;52.41;100209.97;2105915;28;3867;-34
2021/05/18 01:15:39;;;;;;;;;;;;;;;20.13;52.34;100220.19;2106283;28;4010;-34
2021/05/18 01:16:42;;;;;;;;;;;;;;;20.13;52.40;100214.50;2104692;28;4170;-32
2021/05/18 01:17:43;;;;;;;;;;;;;;;20.14;52.27;100218.97;2104684;28;4034;-32
2021/05/18 01:18:44;;;;;;;;;;;;;;;20.13;52.16;100218.16;2105875;28;4044;-33
2021/05/18 01:19:46;;;;;;;;;;;;;;;20.12;52.18;100222.16;2105279;28;3887;-33
2021/05/18 01:20:47;;;;;;;;;;;;;;;20.13;52.35;100223.84;2106118;28;4097;-32
2021/05/18 01:21:48;;;;;;;;;;;;;;;20.14;52.45;100218.97;2105956;28;4299;-30
2021/05/18 01:22:49;;;;;;;;;;;;;;;20.14;52.39;100227.50;2106143;28;4091;-33
2021/05/18 01:23:51;;;;;;;;;;;;;;;20.15;52.40;100226.28;2104830;28;4039;-34
2021/05/18 01:24:52;;;;;;;;;;;;;;;20.15;52.36;100223.44;2098676;28;4099;-32
2021/05/18 01:25:53;;;;;;;;;;;;;;;20.14;52.52;100225.47;2106379;28;3881;-30
2021/05/18 01:26:54;;;;;;;;;;;;;;;20.15;52.44;100232.81;2103177;28;4077;-32
2021/05/18 01:27:55;;;;;;;;;;;;;;;20.15;52.32;100238.50;2103766;28;4169;-33
2021/05/18 01:28:57;;;;;;;;;;;;;;;20.16;52.56;100233.66;2104356;28;4858;-36
2021/05/18 01:29:58;;;;;;;;;;;;;;;20.15;52.42;100238.50;2103527;28;4226;-33
2021/05/18 01:30:59;;;;;;;;;;;;;;;20.16;52.58;100230.81;2103405;28;4064;-34
2021/05/18 01:32:00;;;;;;;;;;;;;;;20.16;52.52;100240.16;2104701;28;4008;-31
2021/05/18 01:33:02;;;;;;;;;;;;;;;20.16;52.58;100240.16;2106033;28;4358;-36
2021/05/18 01:34:03;;;;;;;;;;;;;;;20.17;52.46;100240.97;2106332;28;4042;-31
2021/05/18 01:35:04;;;;;;;;;;;;;;;20.18;52.44;100245.44;2104062;28;4040;-35
2021/05/18 01:36:07;;;;;;;;;;;;;;;20.17;52.53;100240.97;2106184;28;3896;-32
2021/05/18 01:37:08;;;;;;;;;;;;;;;20.17;52.54;100241.78;2105635;28;4060;-35
2021/05/18 01:38:12;;;;;;;;;;;;;;;20.18;52.65;100243.47;2106290;28;3906;-38
2021/05/18 01:42:47;;;;;;;;;;;;;;;20.19;52.56;100250.78;2105691;28;3971;-31
2021/05/18 01:43:48;;;;;;;;;;;;;;;20.20;52.68;100251.59;2106262;28;4041;-33
2021/05/18 01:44:49;;;;;;;;;;;;;;;20.19;52.61;100252.78;2105302;28;3862;-34
2021/05/18 01:45:50;;;;;;;;;;;;;;;20.19;52.65;100245.09;2105858;28;4099;-34
2021/05/18 01:46:53;;;;;;;;;;;;;;;20.19;52.70;100252.78;2106195;28;4029;-37
2021/05/18 01:47:55;;;;;;;;;;;;;;;20.19;52.72;100250.78;2105342;28;3852;-30
2021/05/18 01:48:59;;;;;;;;;;;;;;;20.20;52.64;100257.28;2106246;28;3901;-34
2021/05/18 01:50:01;;;;;;;;;;;;;;;20.19;52.54;100256.47;2105994;28;4035;-32
2021/05/18 01:51:03;;;;;;;;;;;;;;;20.20;52.60;100249.59;2106414;28;3863;-37
2021/05/18 01:52:04;;;;;;;;;;;;;;;20.21;52.75;100253.28;2105022;28;3886;-33
2021/05/18 01:53:08;;;;;;;;;;;;;;;20.21;52.67;100258.94;2106048;28;6130;-36
2021/05/18 01:54:09;;;;;;;;;;;;;;;20.21;52.85;100253.28;2105455;28;3791;-32
2021/05/18 01:55:11;;;;;;;;;;;;;;;20.20;52.89;100251.59;2106238;28;3811;-34
2021/05/18 01:57:19;;;;;;;;;;;;;;;20.21;52.79;100247.59;2104848;28;4003;-39
2021/05/18 01:58:21;;;;;;;;;;;;;;;20.20;52.78;100262.97;2105411;28;4890;-35
2021/05/18 01:59:22;;;;;;;;;;;;;;;20.22;52.81;100269.13;2104499;28;4084;-36
2021/05/18 02:00:24;;;;;;;;;;;;;;;20.21;52.73;100262.63;2106325;28;3911;-35
2021/05/18 02:01:25;;;;;;;;;;;;;;;20.22;52.80;100271.94;2105875;28;3918;-32
2021/05/18 02:02:26;;;;;;;;;;;;;;;20.21;52.73;100265.44;2105353;28;4016;-31
2021/05/18 02:03:27;;;;;;;;;;;;;;;20.21;52.77;100268.28;2105825;28;4011;-33
2021/05/18 02:04:31;;;;;;;;;;;;;;;20.23;52.86;100267.91;2104908;28;3899;-30
2021/05/18 02:05:32;;;;;;;;;;;;;;;20.23;52.85;100270.75;2105631;28;4060;-37
2021/05/18 02:06:34;;;;;;;;;;;;;;;20.23;52.86;100270.75;2105979;28;4139;-35
2021/05/18 02:07:35;;;;;;;;;;;;;;;20.23;52.94;100280.13;2105326;28;4063;-33
2021/05/18 02:08:36;;;;;;;;;;;;;;;20.23;52.79;100274.44;2105456;28;4107;-32
2021/05/18 02:09:37;;;;;;;;;;;;;;;20.23;52.97;100280.13;2105182;28;3972;-33
2021/05/18 02:10:38;;;;;;;;;;;;;;;20.24;52.84;100272.44;2105771;28;3891;-35
2021/05/18 02:11:40;;;;;;;;;;;;;;;20.24;52.99;100275.28;2104931;28;4034;-32
2021/05/18 02:12:41;;;;;;;;;;;;;;;20.23;53.11;100274.44;2105929;28;4024;-35
2021/05/18 02:13:47;;;;;;;;;;;;;;;20.24;52.86;100278.09;2106016;28;4189;-31
2021/05/18 02:14:54;;;;;;;;;;;;;;;20.25;52.72;100277.72;2096894;28;4036;-34
2021/05/18 02:16:05;;;;;;;;;;;;;;;20.26;53.01;100278.56;2097310;28;3954;-35
2021/05/18 02:17:15;;;;;;;;;;;;;;;20.27;53.21;100288.75;2106355;28;4016;-34
2021/05/18 02:18:33;;;;;;;;;;;;;;;20.27;53.03;100285.09;2104531;28;4007;-35
2021/05/18 02:19:45;;;;;;;;;;;;;;;20.26;53.26;100284.22;2105793;28;4693;-34
2021/05/18 02:20:54;;;;;;;;;;;;;;;20.27;53.02;100287.91;2097191;28;4029;-39
2021/05/18 02:22:09;;;;;;;;;;;;;;;20.28;53.03;100283.88;2105457;28;3890;-32
2021/05/18 02:25:00;;;;;;;;;;;;;;;20.27;53.13;100287.91;2105769;28;4657;-36
2021/05/18 02:26:02;;;;;;;;;;;;;;;20.27;53.18;100287.91;2104881;28;4090;-31
2021/05/18 02:27:03;;;;;;;;;;;;;;;20.27;53.02;100288.75;2102464;28;4014;-33
2021/05/18 02:28:04;;;;;;;;;;;;;;;20.27;53.26;100288.75;2099979;28;4057;-32
2021/05/18 02:29:05;;;;;;;;;;;;;;;20.28;53.18;100295.25;2105444;28;4050;-35
2021/05/18 02:30:06;;;;;;;;;;;;;;;20.28;53.10;100286.72;2104978;28;3936;-31
2021/05/18 02:31:08;;;;;;;;;;;;;;;20.27;53.15;100291.59;2105050;28;3995;-35
2021/05/18 02:32:09;;;;;;;;;;;;;;;20.28;53.29;100298.09;2106040;28;3832;-34
2021/05/18 02:33:10;;;;;;;;;;;;;;;20.28;53.21;100298.91;2104793;28;4023;-31
2021/05/18 02:34:11;;;;;;;;;;;;;;;20.29;53.24;100299.72;2105965;28;4011;-35
2021/05/18 02:35:13;;;;;;;;;;;;;;;20.29;53.47;100300.56;2106193;28;4024;-36
2021/05/18 02:36:14;;;;;;;;;;;;;;;20.30;53.39;100301.41;2104118;28;4218;-31
2021/05/18 02:37:15;;;;;;;;;;;;;;;20.30;53.48;100296.53;2106375;28;4171;-33
2021/05/18 02:38:17;;;;;;;;;;;;;;;20.30;53.47;100299.38;2104924;28;3916;-32
2021/05/18 02:39:18;;;;;;;;;;;;;;;20.30;53.45;100307.09;2104778;28;4172;-33
2021/05/18 02:40:20;;;;;;;;;;;;;;;20.30;53.39;100302.22;2105365;28;4892;-32
2021/05/18 02:41:22;;;;;;;;;;;;;;;20.30;53.52;100298.56;2105216;28;3891;-37
2021/05/18 02:42:23;;;;;;;;;;;;;;;20.30;53.40;100295.72;2105754;28;3973;-32
2021/05/18 02:43:26;;;;;;;;;;;;;;;20.31;53.52;100308.72;2104472;28;4076;-34
2021/05/18 02:44:35;;;;;;;;;;;;;;;20.30;53.50;100301.41;2104980;28;4031;-37
2021/05/18 02:45:44;;;;;;;;;;;;;;;20.30;53.50;100302.22;2105983;28;4024;-36
2021/05/18 02:49:26;;;;;;;;;;;;;;;20.35;53.86;100306.81;2105346;28;4378;-34
2021/05/18 02:50:27;;;;;;;;;;;;;;;20.34;53.91;100308.81;2105014;28;4051;-32
2021/05/18 02:51:28;;;;;;;;;;;;;;;20.35;54.02;100315.34;2105779;28;4055;-33
2021/05/18 02:52:31;;;;;;;;;;;;;;;20.35;54.04;100316.16;2105793;28;4273;-32
2021/05/18 02:53:32;;;;;;;;;;;;;;;20.35;53.99;100312.50;2104288;28;4048;-39
2021/05/18 02:54:34;;;;;;;;;;;;;;;20.36;53.99;100320.66;2105734;28;4085;-31
2021/05/18 02:57:05;;;;;;;;;;;;;;;20.36;53.99;100326.34;2104348;28;4021;-34
2021/05/18 02:58:08;;;;;;;;;;;;;;;20.37;54.16;100325.16;2105751;28;3998;-33
2021/05/18 02:59:16;;;;;;;;;;;;;;;20.36;54.12;100329.19;2101827;28;4183;-36
2021/05/18 03:00:17;;;;;;;;;;;;;;;20.36;54.03;100323.50;2104176;28;3835;-32
2021/05/18 03:01:18;;;;;;;;;;;;;;;20.34;53.93;100325.03;2103782;28;4480;-41
2021/05/18 03:02:19;;;;;;;;;;;;;;;20.32;53.73;100327.41;2104297;28;6316;-33
2021/05/18 03:03:21;;;;;;;;;;;;;;;20.30;53.61;100324.94;2104828;28;4113;-31
2021/05/18 03:04:22;;;;;;;;;;;;;;;20.28;53.42;100330.16;2103628;28;4092;-32
2021/05/18 03:05:25;;;;;;;;;;;;;;;20.22;53.08;100328.75;2104545;28;3960;-34
2021/05/18 03:06:28;;;;;;;;;;;;;;;20.19;52.80;100335.16;2102795;28;4085;-38
2021/05/18 03:07:30;;;;;;;;;;;;;;;20.17;52.79;100334.69;2104696;28;3943;-35
2021/05/18 03:08:37;;;;;;;;;;;;;;;20.14;52.57;100341.09;2105265;28;3867;-35
2021/05/18 03:09:38;;;;;;;;;;;;;;;20.12;52.38;100332.91;2104859;28;4048;-37
2021/05/18 03:10:39;;;;;;;;;;;;;;;20.11;52.32;100336.94;2105719;28;3959;-36
2021/05/18 03:11:41;;;;;;;;;;;;;;;20.10;52.17;100335.31;2104560;28;3878;-34
2021/05/18 03:12:42;;;;;;;;;;;;;;;20.09;52.09;100336.47;2104065;28;3923;-33
2021/05/18 03:13:43;;;;;;;;;;;;;;;20.08;51.94;100334.00;2104433;28;4115;-33
2021/05/18 03:14:44;;;;;;;;;;;;;;;20.08;51.74;100334.00;2101810;28;3904;-35
2021/05/18 03:15:46;;;;;;;;;;;;;;;20.06;51.55;100331.53;2105388;28;4239;-34
2021/05/18 03:16:48;;;;;;;;;;;;;;;20.05;51.56;100334.72;2104781;28;4120;-34
2021/05/18 03:17:49;;;;;;;;;;;;;;;20.05;51.57;100331.91;2104452;28;4014;-34
2021/05/18 03:18:51;;;;;;;;;;;;;;;20.03;51.33;100344.41;2104962;28;4065;-34
2021/05/18 03:19:52;;;;;;;;;;;;;;;20.02;51.31;100341.97;2104477;28;3923;-32
2021/05/18 03:20:53;;;;;;;;;;;;;;;20.00;51.26;100338.63;2103908;28;3847;-30
2021/05/18 03:21:54;;;;;;;;;;;;;;;19.99;51.27;100343.50;2105343;28;4083;-33
2021/05/18 03:22:56;;;;;;;;;;;;;;;19.99;51.09;100340.66;2103024;28;3892;-36
2021/05/18 03:23:57;;;;;;;;;;;;;;;19.98;51.03;100335.31;2104703;28;4202;-30
2021/05/18 03:24:58;;;;;;;;;;;;;;;19.97;50.99;100345.84;2104992;28;4094;-39
2021/05/18 03:25:59;;;;;;;;;;;;;;;19.96;51.02;100347.06;2104192;28;3945;-32
2021/05/18 03:27:01;;;;;;;;;;;;;;;19.97;51.06;100345.03;2103282;28;3883;-33
2021/05/18 03:28:02;;;;;;;;;;;;;;;19.95;50.87;100333.19;2103649;28;3837;-31
2021/05/18 03:30:49;;;;;;;;;;;;;;;19.93;50.69;100344.94;2062974;28;4695;-31
2021/05/18 03:34:35;;;;;;;;;;;;;;;19.91;50.46;100340.78;2102969;28;4753;-32
2021/05/18 03:35:36;;;;;;;;;;;;;;;19.89;50.38;100343.16;2104341;28;3883;-33
2021/05/18 03:36:38;;;;;;;;;;;;;;;19.88;50.46;100342.34;2106024;28;4012;-32
2021/05/18 03:37:51;;;;;;;;;;;;;;;19.88;50.44;100342.34;2105651;28;3918;-32
2021/05/18 03:38:56;;;;;;;;;;;;;;;19.86;50.37;100350.38;2104633;28;3864;-42
2021/05/18 03:40:05;;;;;;;;;;;;;;;19.87;50.36;100348.34;2105540;28;3994;-31
2021/05/18 03:41:17;;;;;;;;;;;;;;;19.86;50.45;100350.38;2103509;28;4035;-33
2021/05/18 03:43:57;;;;;;;;;;;;;;;19.85;50.33;100360.09;2092231;28;3884;-31
2021/05/18 03:45:07;;;;;;;;;;;;;;;19.85;50.23;100362.06;2104151;28;4086;-31
2021/05/18 03:53:24;;;;;;;;;;;;;;;19.80;50.17;100368.84;2105188;28;3873;-34
2021/05/18 03:58:35;;;;;;;;;;;;;;;19.77;50.09;100364.69;2104365;28;4098;-32
2021/05/18 04:03:23;;;;;;;;;;;;;;;19.76;50.07;100373.56;2103871;28;4256;-35
2021/05/18 04:04:26;;;;;;;;;;;;;;;19.74;50.15;100376.78;2104733;28;3811;-37
2021/05/18 04:10:52;;;;;;;;;;;;;;;19.72;50.09;100379.13;2105462;28;4417;-32
2021/05/18 04:12:12;;;;;;;;;;;;;;;19.72;50.21;100383.97;2104524;28;4322;-30
2021/05/18 04:17:07;;;;;;;;;;;;;;;19.71;50.03;100385.16;2104696;28;3837;-32
2021/05/18 04:19:14;;;;;;;;;;;;;;;19.70;50.16;100383.50;2104811;28;3992;-33
2021/05/18 04:20:29;;;;;;;;;;;;;;;19.69;50.16;100390.38;2105274;28;4015;-41
2021/05/18 04:21:45;;;;;;;;;;;;;;;19.70;50.29;100389.19;2105335;28;4849;-35
2021/05/18 04:23:06;;;;;;;;;;;;;;;19.69;50.11;100385.50;2107267;28;4068;-30
2021/05/18 04:26:34;;;;;;;;;;;;;;;19.68;50.21;100388.69;2105618;28;4421;-31
2021/05/18 04:41:04;;;;;;;;;;;;;;;19.63;50.19;100406.78;2106416;28;4224;-31
2021/05/18 04:42:36;;;;;;;;;;;;;;;19.62;50.18;100405.09;2106862;28;3975;-36
2021/05/18 04:49:31;;;;;;;;;;;;;;;19.61;50.42;100413.97;2106819;28;4049;-34
2021/05/18 04:50:46;;;;;;;;;;;;;;;19.59;50.42;100412.31;2105466;28;4504;-38
2021/05/18 04:53:11;;;;;;;;;;;;;;;19.58;50.47;100405.00;2105867;28;4056;-35
2021/05/18 04:54:52;;;;;;;;;;;;;;;19.58;50.46;100413.50;2105954;28;4041;-33
2021/05/18 04:59:48;;;;;;;;;;;;;;;19.58;50.47;100416.34;2106084;28;4344;-35
2021/05/18 05:00:51;;;;;;;;;;;;;;;19.57;50.54;100417.53;2105794;28;4201;-34
2021/05/18 05:04:18;;;;;;;;;;;;;;;19.57;50.43;100423.22;2105880;28;3856;-33
2021/05/18 05:07:59;;;;;;;;;;;;;;;19.56;50.71;100430.03;2106033;28;4074;-32
2021/05/18 05:09:07;;;;;;;;;;;;;;;19.56;50.70;100432.88;2106877;28;4046;-33
2021/05/18 05:10:08;;;;;;;;;;;;;;;19.55;50.69;100419.88;2105124;28;4007;-33
2021/05/18 05:14:47;;;;;;;;;;;;;;;19.53;50.75;100435.59;2105736;28;3984;-36
2021/05/18 05:15:48;;;;;;;;;;;;;;;19.52;50.82;100431.94;2106527;28;3927;-34
2021/05/18 05:16:49;;;;;;;;;;;;;;;19.51;50.80;100438.78;2105778;28;3790;-32
2021/05/18 05:17:51;;;;;;;;;;;;;;;19.51;50.87;100435.94;2105647;28;4546;-38
2021/05/18 05:18:52;;;;;;;;;;;;;;;19.52;50.88;100439.63;2105505;28;4077;-34
2021/05/18 05:19:53;;;;;;;;;;;;;;;19.52;50.82;100442.47;2105131;28;4156;-36
2021/05/18 05:20:54;;;;;;;;;;;;;;;19.51;50.95;100435.94;2106458;28;4092;-32
2021/05/18 05:21:56;;;;;;;;;;;;;;;19.52;50.95;100445.31;2106504;28;4033;-31
2021/05/18 05:22:57;;;;;;;;;;;;;;;19.52;50.84;100446.13;2106510;28;3837;-31
2021/05/18 05:23:59;;;;;;;;;;;;;;;19.52;50.88;100445.31;2102385;28;4062;-35
2021/05/18 05:25:00;;;;;;;;;;;;;;;19.51;50.86;100450.13;2100696;28;4037;-30
2021/05/18 05:26:01;;;;;;;;;;;;;;;19.51;50.96;100446.47;2105521;28;4053;-40
2021/05/18 05:27:02;;;;;;;;;;;;;;;19.52;50.98;100453.81;2105364;28;4057;-36
2021/05/18 05:28:04;;;;;;;;;;;;;;;19.51;50.99;100455.81;2104002;28;4149;-31
2021/05/18 05:29:05;;;;;;;;;;;;;;;19.50;51.06;100448.47;2106224;28;3859;-37
2021/05/18 05:30:06;;;;;;;;;;;;;;;19.50;51.09;100454.16;2103692;28;4212;-31
2021/05/18 05:31:07;;;;;;;;;;;;;;;19.50;50.93;100451.31;2106516;28;3962;-33
2021/05/18 05:32:09;;;;;;;;;;;;;;;19.51;51.04;100458.63;2106304;28;4004;-33
2021/05/18 05:33:10;;;;;;;;;;;;;;;19.50;51.02;100457.00;2105066;28;3856;-31
2021/05/18 05:34:11;;;;;;;;;;;;;;;19.50;51.04;100457.00;2105707;28;3993;-31
2021/05/18 05:35:12;;;;;;;;;;;;;;;19.51;51.04;100455.81;2105511;28;3970;-35
2021/05/18 05:36:13;;;;;;;;;;;;;;;19.50;51.13;100457.00;2104074;28;3882;-33
2021/05/18 05:37:15;;;;;;;;;;;;;;;19.49;50.99;100458.19;2106374;28;3811;-32
2021/05/18 05:38:18;;;;;;;;;;;;;;;19.49;51.01;100466.69;2104411;28;3896;-34
2021/05/18 05:39:24;;;;;;;;;;;;;;;19.49;51.12;100460.16;2104802;28;4919;-33
2021/05/18 05:40:25;;;;;;;;;;;;;;;19.49;51.13;100455.34;2105698;28;3892;-34
2021/05/18 05:41:27;;;;;;;;;;;;;;;19.48;51.11;100462.19;2106201;28;3853;-33
2021/05/18 05:42:28;;;;;;;;;;;;;;;19.49;51.26;100463.00;2106177;28;3877;-34
2021/05/18 05:43:29;;;;;;;;;;;;;;;19.49;51.20;100463.88;2105419;28;3902;-32
2021/05/18 05:44:32;;;;;;;;;;;;;;;19.48;51.28;100456.50;2105752;28;4061;-34
2021/05/18 05:45:33;;;;;;;;;;;;;;;19.50;51.28;100467.53;2105594;28;3879;-35
2021/05/18 05:46:35;;;;;;;;;;;;;;;19.49;51.24;100461.03;2105024;28;4195;-34
2021/05/18 05:47:36;;;;;;;;;;;;;;;19.48;51.20;100465.03;2104506;28;3882;-31
2021/05/18 05:48:37;;;;;;;;;;;;;;;19.48;51.23;100465.03;2106602;28;4052;-31
2021/05/18 05:49:39;;;;;;;;;;;;;;;19.48;51.40;100459.34;2105142;28;4050;-34
2021/05/18 05:50:40;;;;;;;;;;;;;;;19.48;51.17;100467.84;2103708;28;4173;-34
2021/05/18 05:51:41;;;;;;;;;;;;;;;19.49;51.31;100463.00;2106579;28;4062;-32
2021/05/18 05:52:42;;;;;;;;;;;;;;;19.48;51.35;100467.84;2105188;28;3897;-28
2021/05/18 05:53:44;;;;;;;;;;;;;;;19.47;51.19;100471.88;2105632;28;4054;-30
2021/05/18 05:54:45;;;;;;;;;;;;;;;19.47;51.21;100466.22;2105008;28;3916;-32
2021/05/18 05:55:46;;;;;;;;;;;;;;;19.48;51.24;100465.03;2104763;28;4112;-42
2021/05/18 05:56:47;;;;;;;;;;;;;;;19.47;51.31;100466.22;2106328;28;4050;-33
2021/05/18 05:57:48;;;;;;;;;;;;;;;19.48;51.44;100470.69;2104730;28;4057;-35
2021/05/18 05:58:50;;;;;;;;;;;;;;;19.46;51.38;100475.91;2103817;28;4000;-36
2021/05/18 05:59:51;;;;;;;;;;;;;;;19.46;51.53;100469.38;2104240;28;3734;-31
2021/05/18 06:00:52;;;;;;;;;;;;;;;19.45;51.28;100474.25;2105028;28;4213;-32
2021/05/18 06:01:53;;;;;;;;;;;;;;;19.44;51.53;100475.44;2105573;28;4049;-30
2021/05/18 06:02:55;;;;;;;;;;;;;;;19.46;51.55;100480.72;2104287;28;4051;-31
2021/05/18 06:03:56;;;;;;;;;;;;;;;19.45;51.49;100479.09;2103828;28;4049;-34
2021/05/18 06:04:57;;;;;;;;;;;;;;;19.45;51.49;100479.91;2103524;28;3917;-31
2021/05/18 06:05:58;;;;;;;;;;;;;;;19.45;51.65;100484.75;2104292;28;4024;-30
2021/05/18 06:07:00;;;;;;;;;;;;;;;19.45;51.59;100484.75;2103239;28;4074;-34
2021/05/18 06:08:01;;;;;;;;;;;;;;;19.44;51.48;100488.78;2105247;28;4025;-37
2021/05/18 06:09:02;;;;;;;;;;;;;;;19.43;51.60;100490.78;2104443;28;3997;-32
2021/05/18 06:10:11;;;;;;;;;;;;;;;19.44;51.46;100486.78;2104512;28;3843;-33
2021/05/18 06:13:49;;;;;;;;;;;;;;;19.41;51.65;100496.00;2106091;28;4194;-31
2021/05/18 06:15:15;;;;;;;;;;;;;;;19.42;51.54;100494.81;2105012;28;3861;-35
2021/05/18 06:16:37;;;;;;;;;;;;;;;19.43;51.45;100499.28;2105224;28;3979;-36
2021/05/18 06:18:10;;;;;;;;;;;;;;;19.44;51.57;100495.28;2104723;28;4621;-33
2021/05/18 06:29:48;;;;;;;;;;;;;;;19.41;51.62;100503.66;2105253;28;3838;-34
2021/05/18 06:34:08;;;;;;;;;;;;;;;19.37;51.83;100514.88;2102298;28;3859;-38
2021/05/18 06:34:30;;;;;;;;;;;;;;;19.35;51.80;100506.72;2098145;28;19900;-33
2021/05/18 06:36:54;;;;;;;;;;;;;;;19.36;51.75;100521.75;2103798;28;4427;-33
2021/05/18 06:37:26;;;;;;;;;;;;;;;19.37;51.72;100514.88;2105192;28;4016;-30
2021/05/18 06:41:43;;;;;;;;;;;;;;;19.39;51.78;100528.72;2103875;28;4930;-32
2021/05/18 06:42:58;;;;;;;;;;;;;;;19.38;51.73;100525.06;2104403;28;4076;-30
2021/05/18 06:46:52;;;;;;;;;;;;;;;19.34;51.79;100535.44;2105417;28;4027;-32
2021/05/18 06:47:54;;;;;;;;;;;;;;;19.33;51.87;100534.59;2104007;28;4022;-33
2021/05/18 06:48:57;;;;;;;;;;;;;;;19.34;51.88;100541.09;2105216;28;3903;-32
2021/05/18 06:50:10;;;;;;;;;;;;;;;19.32;51.77;100537.78;2105386;28;4017;-38
2021/05/18 06:51:11;;;;;;;;;;;;;;;19.31;51.83;100542.63;2105004;28;4973;-36
2021/05/18 06:52:12;;;;;;;;;;;;;;;19.31;51.73;100544.66;2104522;28;3992;-33
2021/05/18 06:53:13;;;;;;;;;;;;;;;19.32;51.70;100534.94;2105110;28;3867;-33
2021/05/18 06:54:15;;;;;;;;;;;;;;;19.31;51.91;100539.78;2105306;28;4188;-32
2021/05/18 06:55:19;;;;;;;;;;;;;;;19.31;51.78;100544.66;2105895;28;3802;-38
2021/05/18 06:56:20;;;;;;;;;;;;;;;19.31;51.76;100548.31;2105110;28;3992;-34
2021/05/18 06:57:21;;;;;;;;;;;;;;;19.30;51.70;100543.00;2104810;28;4086;-31
2021/05/18 06:58:28;;;;;;;;;;;;;;;19.30;51.77;100548.66;2104189;28;3917;-30
2021/05/18 07:00:33;;;;;;;;;;;;;;;19.30;51.82;100554.34;2103771;28;4007;-34
2021/05/18 07:01:34;;;;;;;;;;;;;;;19.29;51.75;100547.81;2105512;28;4047;-31
2021/05/18 07:02:35;;;;;;;;;;;;;;;19.30;51.85;100560.00;2104994;28;3879;-33
2021/05/18 07:03:42;;;;;;;;;;;;;;;19.30;51.66;100565.69;2096614;28;4034;-32
2021/05/18 07:04:44;;;;;;;;;;;;;;;19.30;51.88;100560.00;2105106;28;3920;-30
2021/05/18 07:05:58;;;;;;;;;;;;;;;19.30;51.79;100560.84;2104402;28;4166;-31
2021/05/18 07:07:12;;;;;;;;;;;;;;;19.28;51.99;100566.03;2105013;28;3970;-32
2021/05/18 07:09:14;;;;;;;;;;;;;;;19.30;51.73;100560.84;2104994;28;4006;-32
2021/05/18 07:10:16;;;;;;;;;;;;;;;19.30;51.79;100557.19;2104697;28;3887;-36
2021/05/18 07:11:18;;;;;;;;;;;;;;;19.28;51.87;100560.34;2105483;28;3753;-33
2021/05/18 07:12:19;;;;;;;;;;;;;;;19.28;51.81;100563.19;2105118;28;4123;-31
2021/05/18 07:13:20;;;;;;;;;;;;;;;19.29;51.65;100564.84;2105059;28;3976;-37
2021/05/18 07:14:22;;;;;;;;;;;;;;;19.29;51.85;100561.19;2104871;28;3861;-31
2021/05/18 07:15:26;;;;;;;;;;;;;;;19.27;51.79;100569.19;2104987;28;4040;-32
2021/05/18 07:16:27;;;;;;;;;;;;;;;19.26;51.95;100564.72;2104969;28;3886;-33